Nearby METAR Reports

 

KGEU - Glendale, Arizona, USA
Distance from station: S 3mi, 4km
Updated: Wed, 18-Sep-2019 7:47pm MST
NOT Current
Clear
Clear
 Wind from SW
Wind: SW 5 mph , 7 km/h
Temperature: 95°F , 35°C
Dew Point: 46°F , 8°C
Humidity: 19%
Barometer: 29.78 inHg , 1008.5 hPa
Clouds: Clear
Visibility: 10 miles , 16 km
2019/09/19 02:47 KGEU 190247Z 23004KT 10SM SKC 35/08 A2978 RMK LAST
KLUF - Luke Afb/Glendal, Arizona, USA
Distance from station: SW 5mi, 8km
Updated: Thu, 19-Sep-2019 3:58am MST
Clear
Clear
 Wind from calm
Wind: Calm
Temperature: 73°F , 23°C
Dew Point: 46°F , 8°C
Humidity: 38%
Barometer: 29.77 inHg , 1008.1 hPa
Clouds: Clear
Visibility: 10 miles , 16 km
2019/09/19 10:58 KLUF 191058Z AUTO 00000KT 10SM CLR 23/08 A2977 RMK AO2 SLP067 T02280081
 
KGYR - Goodyear Municip, Arizona, USA
Distance from station: SSW 11mi, 18km
Updated: Wed, 18-Sep-2019 8:47pm MST
NOT Current
Few Clouds
Few Clouds
 Wind from calm
Wind: Calm
Temperature: 88°F , 31°C
Dew Point: 52°F , 11°C
Humidity: 29%
Barometer: 29.76 inHg , 1007.8 hPa
Clouds: Few Clouds
Visibility: 10 miles , 16 km
Cloud details: Few Clouds 10000 ft
2019/09/19 03:47 KGYR 190347Z 00000KT 10SM FEW100 31/11 A2976 RMK LAST
KDVT - Phoenix/Deer Vly, Arizona, USA
Distance from station: ENE 16mi, 26km
Updated: Thu, 19-Sep-2019 3:53am MST
Clear
Clear
 Wind from ESE
Wind: ESE 5 mph , 7 km/h
Temperature: 73°F , 23°C
Dew Point: 46°F , 8°C
Humidity: 38%
Barometer: 29.81 inHg , 1009.5 hPa
Clouds: Clear
Visibility: 10 miles , 16 km
2019/09/19 10:53 KDVT 191053Z AUTO 11004KT 10SM CLR 23/08 A2981 RMK AO2 SLP066 T02280083
 
KPHX - Phoenix/Sky Hrbr, Arizona, USA
Distance from station: ESE 19mi, 31km
Updated: Thu, 19-Sep-2019 3:51am MST
Mostly cloudy
Mostly cloudy
 Wind from ESE
Wind: ESE 6 mph , 9 km/h
Temperature: 82°F , 28°C
Dew Point: 50°F , 10°C
Humidity: 32%
Barometer: 29.77 inHg , 1008.1 hPa
Clouds: Mostly cloudy
Visibility: 10 miles , 16 km
Cloud details: Mostly cloudy 12000 ft
2019/09/19 10:51 KPHX 191051Z 12005KT 10SM BKN120 28/10 A2977 RMK AO2 SLP061 T02780100
KSDL - Scottsdale, Arizona, USA
Distance from station: E 23mi, 37km
Updated: Thu, 19-Sep-2019 3:53am MST
Clear
Clear
 Wind from calm
Wind: Calm
Temperature: 79°F , 26°C
Dew Point: 52°F , 11°C
Humidity: 39%
Barometer: 29.82 inHg , 1009.8 hPa
Clouds: Clear
Visibility: 10 miles , 16 km
2019/09/19 10:53 KSDL 191053Z AUTO 00000KT 10SM CLR 26/11 A2982 RMK AO2 SLP068 T02560106
 
KBXK - Buckeye, Arizona, USA
Distance from station: WSW 24mi, 39km
Updated: Thu, 19-Sep-2019 4:15am MST
Clear
Clear
 Wind from ENE
Wind: ENE 7 mph , 11 km/h
Temperature: 73°F , 23°C
Dew Point: 52°F , 11°C
Humidity: 47%
Barometer: 29.78 inHg , 1008.5 hPa
Clouds: Clear
Visibility: 10 miles , 16 km
2019/09/19 11:15 KBXK 191115Z AUTO 06006KT 10SM CLR 23/11 A2978 RMK A01
KFFZ - Mesa/Falcon Fld, Arizona, USA
Distance from station: E 35mi, 56km
Updated: Thu, 19-Sep-2019 3:54am MST
Clear
Clear
 Wind from ESE
Wind: ESE 6 mph , 9 km/h
Temperature: 81°F , 27°C
Dew Point: 50°F , 10°C
Humidity: 34%
Barometer: 29.80 inHg , 1009.1 hPa
Clouds: Clear
Visibility: 10 miles , 16 km
2019/09/19 10:54 KFFZ 191054Z AUTO 12005KT 10SM CLR 27/10 A2980 RMK AO2 SLP065 T02720100
 
KIWA - Chandler/Mesa, Arizona, USA
Distance from station: ESE 42mi, 68km
Updated: Thu, 19-Sep-2019 4:15am MST
Partly cloudy
Partly cloudy
 Wind from ESE
Wind: ESE 10 mph , 17 km/h
Temperature: 77°F , 25°C
Dew Point: 48°F , 9°C
Humidity: 36%
Barometer: 29.82 inHg , 1009.8 hPa
Clouds: Partly cloudy
Visibility: 10 miles , 16 km
Cloud details: Partly cloudy 12000 ft
2019/09/19 11:15 KIWA 191115Z AUTO 12009KT 10SM SCT120 25/09 A2982 RMK AO2 T02520089
KCGZ - Casa Granda, Arizona, USA
Distance from station: SE 53mi, 85km
Updated: Thu, 19-Sep-2019 3:56am MST
Mostly cloudy
Mostly cloudy
 Wind from calm
Wind: Calm
Temperature: 75°F , 24°C
Dew Point: 48°F , 9°C
Humidity: 39%
Barometer: 29.83 inHg , 1010.2 hPa
Clouds: Mostly cloudy
Visibility: 10 miles , 16 km
Cloud details: Mostly cloudy 11000 ft
2019/09/19 10:56 KCGZ 191056Z AUTO 00000KT 10SM BKN110 24/09 A2983 RMK AO2 SLP084 T02440089
 
KGXF - Gila Bend (aaf), Arizona, USA
Distance from station: SSW 54mi, 87km
Updated: Thu, 19-Sep-2019 3:58am MST
Clear
Clear
 Wind from SSE
Wind: SSE 8 mph , 13 km/h
Temperature: 79°F , 26°C
Dew Point: 45°F , 7°C
Humidity: 30%
Barometer: 29.75 inHg , 1007.5 hPa
Clouds: Clear
Visibility: 10 miles , 16 km
2019/09/19 10:58 KGXF 191058Z AUTO 15007KT 10SM CLR 26/07 A2975 RMK AO2 SLP060 T02600071
KPAN - Payson, Arizona, USA
Distance from station: NE 73mi, 117km
Updated: Thu, 19-Sep-2019 4:15am MST
Clear
Clear
 Wind from calm
Wind: Calm
Temperature: 63°F , 17°C
Dew Point: 41°F , 5°C
Humidity: 45%
Barometer: 30.07 inHg , 1018.3 hPa
Clouds: Clear
Visibility: 10 miles , 16 km
2019/09/19 11:15 KPAN 191115Z AUTO 00000KT 10SM CLR 17/05 A3007 RMK AO2
 
KPRC - Prescott, Arizona, USA
Distance from station: N 75mi, 121km
Updated: Thu, 19-Sep-2019 3:53am MST
Clear
Clear
 Wind from SW
Wind: SW 9 mph , 15 km/h
Temperature: 61°F , 16°C
Dew Point: 34°F , 1°C
Humidity: 36%
Barometer: 30.02 inHg , 1016.6 hPa
Clouds: Clear
Visibility: 10 miles , 16 km
2019/09/19 10:53 KPRC 191053Z AUTO 22008KT 10SM CLR 16/01 A3002 RMK AO2 SLP085 T01610011
KSEZ - Sedona, Arizona, USA
Distance from station: NNE 93mi, 150km
Updated: Thu, 19-Sep-2019 4:15am MST
Clear
Clear
 Wind from calm
Wind: Calm
Temperature: 66°F , 19°C
Dew Point: 43°F , 6°C
Humidity: 43%
Barometer: 30.02 inHg , 1016.6 hPa
Clouds: Clear
Visibility: 10 miles , 16 km
2019/09/19 11:15 KSEZ 191115Z AUTO 00000KT 10SM CLR 19/06 A3002 RMK AO2
 
KFLG - Flagstaff, Arizona, USA
Distance from station: NNE 114mi, 184km
Updated: Thu, 19-Sep-2019 3:57am MST
Clear
Clear
 Wind from calm
Wind: Calm
Temperature: 41°F , 5°C
Dew Point: 34°F , 1°C
Humidity: 76%
Barometer: 30.15 inHg , 1021 hPa
Clouds: Clear
Visibility: 10 miles , 16 km
2019/09/19 10:57 KFLG 191057Z AUTO 00000KT 10SM CLR 05/01 A3015 RMK AO2 SLP126 T00500011
KRYN - Tucson/Ryan Fld, Arizona, USA
Distance from station: SE 118mi, 190km
Updated: Wed, 18-Sep-2019 7:45pm MST
NOT Current
Clear
Clear
 Wind from S
Wind: S 3 mph , 6 km/h
Temperature: 90°F , 32°C
Dew Point: 45°F , 7°C
Humidity: 21%
Barometer: 29.90 inHg , 1012.5 hPa
Clouds: Clear
Visibility: 10 miles , 16 km
2019/09/19 02:45 KRYN 190245Z 19003KT 10SM CLR 32/07 A2990 RMK LAST
 
KTUS - Tucson, Arizona, USA
Distance from station: SE 127mi, 204km
Updated: Thu, 19-Sep-2019 3:53am MST
Clear
Clear
 Wind from SE
Wind: SE 8 mph , 13 km/h
Temperature: 75°F , 24°C
Dew Point: 48°F , 9°C
Humidity: 39%
Barometer: 29.92 inHg , 1013.2 hPa
Clouds: Clear
Visibility: 10 miles , 16 km
2019/09/19 10:53 KTUS 191053Z 14007KT 10SM CLR 24/09 A2992 RMK AO2 SLP080 T02440094
KDMA - Davis/Tucson, Arizona, USA
Distance from station: SE 128mi, 206km
Updated: Thu, 19-Sep-2019 3:58am MST
Clear
Clear
 Wind from E
Wind: E 8 mph , 13 km/h
Temperature: 72°F , 22°C
Dew Point: 54°F , 12°C
Humidity: 53%
Barometer: 29.91 inHg , 1012.9 hPa
Clouds: Clear
Visibility: 10 miles , 16 km
2019/09/19 10:58 KDMA 191058Z AUTO 10007KT 10SM CLR 22/12 A2991 RMK AO2 SLP082 T02240123 $
 
KINW - Winslow, Arizona, USA
Distance from station: NE 136mi, 219km
Updated: Thu, 19-Sep-2019 3:56am MST
Clear
Clear
 Wind from ESE
Wind: ESE 8 mph , 13 km/h
Temperature: 57°F , 14°C
Dew Point: 37°F , 3°C
Humidity: 48%
Barometer: 30.04 inHg , 1017.3 hPa
Clouds: Clear
Visibility: 10 miles , 16 km
2019/09/19 10:56 KINW 191056Z AUTO 12007KT 10SM CLR 14/03 A3004 RMK AO2 SLP103 T01390033
KHII - Lake Havasu City, Arizona, USA
Distance from station: WNW 136mi, 220km
Updated: Thu, 19-Sep-2019 3:50am MST
Partly cloudy
Partly cloudy
 Wind from E
Wind: E 5 mph , 7 km/h
Temperature: 73°F , 23°C
Dew Point: 23°F , -5°C
Humidity: 15%
Barometer: 29.73 inHg , 1006.8 hPa
Clouds: Partly cloudy
Visibility: 10 miles , 16 km
Cloud details: Partly cloudy 6000 ft
2019/09/19 10:50 KHII 191050Z AUTO 10004KT 10SM SCT060 23/M05 A2973 RMK AO2